createdAt,value
2022-12-11T00:01:54.718Z,24.05
2022-12-11T00:04:20.846Z,24.77
2022-12-11T00:06:46.983Z,26.15
2022-12-11T00:09:13.086Z,28.15
2022-12-11T00:11:39.216Z,25.50
2022-12-11T00:14:05.330Z,26.92
2022-12-11T00:16:31.517Z,26.77
2022-12-11T00:18:57.734Z,24.83
2022-12-11T00:21:23.861Z,27.77
2022-12-11T00:23:49.964Z,23.60
2022-12-11T00:26:16.095Z,30.27
2022-12-11T00:28:42.211Z,26.70
2022-12-11T00:31:08.343Z,28.17
2022-12-11T00:33:34.447Z,23.30
2022-12-11T00:36:00.603Z,19.48
2022-12-11T00:38:26.722Z,22.77
2022-12-11T00:40:52.815Z,23.80
2022-12-11T00:43:18.945Z,25.23
2022-12-11T00:45:45.080Z,23.58
2022-12-11T00:48:11.271Z,24.27
2022-12-11T00:50:37.371Z,23.92
2022-12-11T00:53:03.491Z,19.52
2022-12-11T00:55:29.591Z,22.92
2022-12-11T00:57:55.706Z,25.77
2022-12-11T01:00:21.821Z,25.98
2022-12-11T01:02:47.989Z,24.50
2022-12-11T01:05:14.114Z,23.58
2022-12-11T01:07:40.234Z,23.75
2022-12-11T01:10:06.405Z,23.77
2022-12-11T01:12:32.557Z,22.00
2022-12-11T01:14:58.681Z,25.67
2022-12-11T01:17:24.784Z,22.33
2022-12-11T01:19:50.962Z,24.13
2022-12-11T01:22:17.066Z,25.17
2022-12-11T01:24:43.198Z,24.33
2022-12-11T01:27:09.304Z,26.25
2022-12-11T01:29:35.426Z,22.02
2022-12-11T01:32:01.531Z,23.50
2022-12-11T01:34:27.661Z,23.55
2022-12-11T01:36:53.815Z,23.98
2022-12-11T01:39:19.931Z,22.58
2022-12-11T01:41:46.042Z,25.13
2022-12-11T01:44:12.193Z,25.23
2022-12-11T01:46:38.306Z,25.05
2022-12-11T01:49:04.434Z,22.98
2022-12-11T01:51:30.556Z,24.45
2022-12-11T01:53:56.658Z,18.73
2022-12-11T01:56:22.789Z,19.45
2022-12-11T01:58:48.887Z,22.67
2022-12-11T02:01:15.063Z,20.75
2022-12-11T02:03:41.207Z,23.20
2022-12-11T02:06:07.330Z,19.75
2022-12-11T02:08:33.446Z,25.30
2022-12-11T02:10:59.568Z,22.00
2022-12-11T02:13:25.706Z,19.98
2022-12-11T02:15:51.812Z,20.75
2022-12-11T02:18:17.932Z,19.33
2022-12-11T02:20:44.074Z,20.50
2022-12-11T02:23:10.177Z,18.13
2022-12-11T02:25:36.314Z,16.58
2022-12-11T02:28:02.423Z,20.23
2022-12-11T02:30:28.617Z,20.20
2022-12-11T02:32:54.719Z,18.35
2022-12-11T02:35:20.892Z,18.05
2022-12-11T02:37:47.005Z,19.17
2022-12-11T02:40:13.154Z,19.35
2022-12-11T02:42:39.256Z,16.88
2022-12-11T02:45:05.397Z,19.35
2022-12-11T02:47:31.520Z,20.00
2022-12-11T02:49:57.620Z,19.83
2022-12-11T02:52:23.749Z,19.88
2022-12-11T02:54:49.996Z,17.45
2022-12-11T02:57:16.126Z,20.88
2022-12-11T02:59:42.233Z,18.27
2022-12-11T03:02:08.392Z,21.02
2022-12-11T03:04:34.524Z,17.77
2022-12-11T03:07:00.668Z,18.88
2022-12-11T03:09:26.817Z,17.42
2022-12-11T03:11:52.957Z,18.40
2022-12-11T03:14:19.055Z,18.10
2022-12-11T03:16:45.231Z,17.08
2022-12-11T03:19:11.593Z,19.30
2022-12-11T03:21:37.717Z,17.52
2022-12-11T03:24:03.844Z,16.83
2022-12-11T03:26:29.962Z,16.40
2022-12-11T03:28:56.059Z,18.33
2022-12-11T03:31:22.266Z,17.70
2022-12-11T03:33:48.381Z,16.73
2022-12-11T03:36:14.505Z,18.83
2022-12-11T03:38:40.635Z,20.23
2022-12-11T03:41:09.964Z,21.05
2022-12-11T03:43:38.216Z,16.58
2022-12-11T03:46:04.364Z,15.45
2022-12-11T03:48:30.688Z,16.33
2022-12-11T03:50:57.057Z,16.48
2022-12-11T03:53:23.209Z,18.00
2022-12-11T03:55:49.491Z,16.00
2022-12-11T03:58:16.462Z,17.10
2022-12-11T04:00:42.745Z,19.65
2022-12-11T04:03:13.258Z,16.90
2022-12-11T04:05:40.127Z,14.57
2022-12-11T04:08:06.360Z,18.17
2022-12-11T04:10:32.519Z,15.18
2022-12-11T04:12:58.680Z,16.40
2022-12-11T04:15:25.037Z,16.33
2022-12-11T04:17:51.147Z,15.30
2022-12-11T04:20:17.498Z,17.17
2022-12-11T04:22:43.596Z,16.23
2022-12-11T04:25:10.130Z,17.30
2022-12-11T04:27:36.509Z,15.45
2022-12-11T04:30:02.881Z,16.17
2022-12-11T04:32:29.170Z,15.02
2022-12-11T04:34:55.289Z,18.70
2022-12-11T04:37:24.446Z,16.10
2022-12-11T04:39:50.616Z,20.40
2022-12-11T04:42:16.734Z,18.23
2022-12-11T04:44:42.865Z,16.73
2022-12-11T04:47:12.437Z,18.42
2022-12-11T04:49:41.472Z,16.58
2022-12-11T04:52:07.609Z,16.83
2022-12-11T04:54:33.734Z,16.45
2022-12-11T04:56:59.848Z,20.20
2022-12-11T04:59:27.143Z,17.83
2022-12-11T05:01:53.313Z,18.30
2022-12-11T05:04:19.732Z,16.75
2022-12-11T05:06:46.094Z,19.15
2022-12-11T05:09:15.253Z,18.10
2022-12-11T05:11:41.777Z,19.50
2022-12-11T05:14:07.886Z,17.00
2022-12-11T05:16:34.023Z,16.85
2022-12-11T05:19:00.118Z,17.13
2022-12-11T05:21:30.265Z,17.85
2022-12-11T05:23:59.389Z,16.77
2022-12-11T05:26:25.513Z,15.20
2022-12-11T05:28:51.669Z,16.58
2022-12-11T05:31:17.866Z,15.18
2022-12-11T05:33:44.016Z,15.43
2022-12-11T05:36:10.169Z,13.55
2022-12-11T05:38:36.308Z,13.80
2022-12-11T05:41:02.443Z,15.63
2022-12-11T05:43:28.583Z,14.23
2022-12-11T05:45:54.733Z,13.13
2022-12-11T05:48:20.923Z,13.45
2022-12-11T05:50:47.052Z,14.50
2022-12-11T05:53:13.209Z,15.25
2022-12-11T05:55:39.348Z,13.52
2022-12-11T05:58:05.526Z,13.70
2022-12-11T06:00:36.030Z,15.45
2022-12-11T06:03:02.554Z,12.93
2022-12-11T06:05:28.766Z,12.98
2022-12-11T06:07:54.928Z,15.25
2022-12-11T06:10:21.053Z,14.55
2022-12-11T06:12:47.180Z,14.00
2022-12-11T06:15:13.357Z,13.70
2022-12-11T06:17:39.735Z,12.23
2022-12-11T06:20:05.914Z,11.48
2022-12-11T06:22:32.080Z,13.25
2022-12-11T06:24:58.356Z,12.15
2022-12-11T06:27:24.496Z,11.82
2022-12-11T06:29:50.624Z,12.20
2022-12-11T06:32:16.756Z,13.18
2022-12-11T06:34:42.893Z,11.70
2022-12-11T06:37:08.996Z,13.05
2022-12-11T06:39:35.128Z,15.18
2022-12-11T06:42:01.269Z,14.85
2022-12-11T06:44:27.406Z,15.10
2022-12-11T06:46:53.516Z,15.95
2022-12-11T06:49:19.635Z,14.93
2022-12-11T06:51:45.740Z,15.90
2022-12-11T06:54:11.897Z,14.85
2022-12-11T06:56:38.000Z,17.23
2022-12-11T06:59:07.320Z,15.80
2022-12-11T07:01:33.833Z,15.48
2022-12-11T07:03:59.966Z,16.52
2022-12-11T07:06:26.165Z,15.25
2022-12-11T07:08:52.308Z,18.85
2022-12-11T07:11:18.412Z,14.70
2022-12-11T07:13:44.584Z,15.43
2022-12-11T07:16:10.949Z,17.02
2022-12-11T07:18:37.304Z,17.90
2022-12-11T07:21:03.483Z,16.38
2022-12-11T07:23:29.601Z,18.88
2022-12-11T07:25:55.735Z,16.20
2022-12-11T07:28:21.841Z,16.52
2022-12-11T07:30:47.983Z,17.80
2022-12-11T07:33:14.359Z,16.10
2022-12-11T07:35:40.514Z,17.52
2022-12-11T07:38:06.645Z,18.83
2022-12-11T07:40:32.891Z,18.65
2022-12-11T07:42:59.008Z,17.08
2022-12-11T07:45:25.166Z,18.65
2022-12-11T07:47:51.268Z,17.00
2022-12-11T07:50:17.399Z,18.35
2022-12-11T07:52:43.551Z,16.77
2022-12-11T07:55:09.989Z,17.75
2022-12-11T07:57:36.269Z,15.23
2022-12-11T08:00:02.375Z,16.80
2022-12-11T08:02:31.327Z,17.33
2022-12-11T08:05:01.633Z,13.93
2022-12-11T08:07:27.768Z,19.55
2022-12-11T08:09:53.948Z,18.30
2022-12-11T08:12:20.105Z,19.15
2022-12-11T08:14:46.293Z,18.08
2022-12-11T08:17:12.470Z,17.17
2022-12-11T08:19:38.642Z,16.70
2022-12-11T08:22:04.783Z,19.25
2022-12-11T08:24:30.900Z,19.02
2022-12-11T08:26:57.046Z,17.13
2022-12-11T08:29:23.194Z,18.23
2022-12-11T08:31:49.389Z,16.90
2022-12-11T08:34:15.497Z,17.20
2022-12-11T08:36:41.661Z,18.17
2022-12-11T08:39:07.818Z,17.45
2022-12-11T08:41:33.937Z,17.35
2022-12-11T08:44:00.060Z,18.52
2022-12-11T08:46:26.265Z,15.75
2022-12-11T08:48:52.509Z,14.80
2022-12-11T08:51:18.616Z,16.17
2022-12-11T08:53:44.781Z,17.42
2022-12-11T08:56:10.885Z,16.73
2022-12-11T08:58:37.024Z,16.60
2022-12-11T09:01:03.249Z,14.18
2022-12-11T09:03:29.445Z,14.35
2022-12-11T09:05:55.559Z,13.80
2022-12-11T09:08:21.757Z,14.40
2022-12-11T09:10:47.939Z,11.75
2022-12-11T09:13:14.419Z,14.52
2022-12-11T09:15:40.600Z,13.68
2022-12-11T09:18:06.808Z,12.68
2022-12-11T09:20:32.931Z,13.73
2022-12-11T09:22:59.034Z,13.27
2022-12-11T09:25:25.153Z,11.45
2022-12-11T09:27:51.251Z,11.55
2022-12-11T09:30:17.428Z,11.25
2022-12-11T09:32:43.544Z,9.05
2022-12-11T09:35:10.004Z,11.65
2022-12-11T09:37:36.440Z,13.38
2022-12-11T09:40:07.399Z,10.50
2022-12-11T09:42:34.017Z,11.02
2022-12-11T09:45:00.180Z,11.63
2022-12-11T09:47:26.395Z,12.35
2022-12-11T09:49:52.593Z,11.05
2022-12-11T09:52:18.731Z,8.20
2022-12-11T09:54:44.865Z,10.35
2022-12-11T09:57:10.963Z,7.55
2022-12-11T09:59:37.112Z,10.25
2022-12-11T10:02:03.225Z,12.55
2022-12-11T10:04:29.382Z,11.82
2022-12-11T10:06:55.487Z,9.93
2022-12-11T10:09:21.594Z,10.38
2022-12-11T10:11:54.484Z,7.07
2022-12-11T10:14:22.376Z,7.57
2022-12-11T10:16:48.493Z,8.70
2022-12-11T10:19:14.615Z,11.23
2022-12-11T10:21:40.735Z,8.65
2022-12-11T10:24:06.819Z,11.20
2022-12-11T10:26:32.949Z,9.10
2022-12-11T10:28:59.082Z,10.82
2022-12-11T10:31:25.253Z,9.38
2022-12-11T10:33:51.394Z,9.30
2022-12-11T10:36:17.535Z,11.48
2022-12-11T10:38:43.644Z,10.80
2022-12-11T10:41:09.798Z,10.18
2022-12-11T10:43:35.900Z,10.95
2022-12-11T10:46:02.099Z,10.00
2022-12-11T10:48:28.252Z,11.25
2022-12-11T10:50:54.368Z,10.15
2022-12-11T10:53:20.471Z,9.60
2022-12-11T10:55:46.612Z,16.38
2022-12-11T10:58:12.730Z,9.00
2022-12-11T11:00:38.832Z,9.93
2022-12-11T11:03:04.973Z,9.85
2022-12-11T11:05:31.082Z,9.70
2022-12-11T11:07:57.223Z,9.63
2022-12-11T11:10:23.377Z,10.65
2022-12-11T11:12:49.508Z,10.65
2022-12-11T11:15:15.618Z,8.45
2022-12-11T11:17:51.142Z,8.25
2022-12-11T11:20:20.592Z,8.60
2022-12-11T11:22:46.793Z,9.95
2022-12-11T11:25:13.193Z,8.57
2022-12-11T11:27:39.500Z,8.98
2022-12-11T11:30:05.630Z,9.30
2022-12-11T11:32:31.756Z,9.15
2022-12-11T11:34:57.868Z,11.35
2022-12-11T11:37:24.023Z,8.38
2022-12-11T11:39:50.182Z,8.52
2022-12-11T11:42:16.272Z,9.35
2022-12-11T11:44:42.391Z,10.95
2022-12-11T11:47:08.496Z,10.93
2022-12-11T11:49:34.739Z,9.95
2022-12-11T11:52:00.852Z,10.07
2022-12-11T11:54:26.988Z,9.32
2022-12-11T11:56:53.097Z,6.70
2022-12-11T11:59:19.245Z,8.18
2022-12-11T12:01:45.360Z,7.25
2022-12-11T12:04:11.492Z,7.95
2022-12-11T12:06:37.587Z,8.27
2022-12-11T12:09:03.717Z,7.35
2022-12-11T12:11:29.821Z,8.80
2022-12-11T12:13:55.948Z,7.43
2022-12-11T12:16:51.007Z,9.60
2022-12-11T12:19:08.198Z,7.25
2022-12-11T12:21:34.305Z,6.90
2022-12-11T12:24:00.397Z,7.18
2022-12-11T12:26:26.564Z,8.50
2022-12-11T12:28:52.676Z,8.15
2022-12-11T12:31:18.884Z,5.88
2022-12-11T12:33:45.062Z,6.07
2022-12-11T12:36:11.334Z,8.80
2022-12-11T12:38:37.610Z,6.78
2022-12-11T12:41:03.746Z,9.32
2022-12-11T12:43:29.879Z,9.43
2022-12-11T12:45:56.038Z,9.52
2022-12-11T12:48:22.192Z,7.88
2022-12-11T12:50:48.351Z,7.30
2022-12-11T12:53:14.466Z,7.88
2022-12-11T12:55:40.581Z,7.97
2022-12-11T12:58:06.743Z,8.23
2022-12-11T13:00:32.896Z,11.32
2022-12-11T13:02:59.055Z,8.70
2022-12-11T13:05:25.231Z,9.52
2022-12-11T13:07:54.401Z,6.53
2022-12-11T13:10:20.848Z,8.65
2022-12-11T13:12:46.997Z,6.45
2022-12-11T13:15:13.338Z,6.72
2022-12-11T13:17:39.629Z,6.82
2022-12-11T13:20:05.924Z,10.38
2022-12-11T13:22:32.122Z,7.07
2022-12-11T13:24:58.278Z,6.82
2022-12-11T13:27:24.437Z,8.48
2022-12-11T13:29:50.557Z,6.72
2022-12-11T13:32:16.714Z,7.55
2022-12-11T13:34:42.831Z,9.00
2022-12-11T13:37:08.995Z,7.57
2022-12-11T13:39:35.152Z,6.57
2022-12-11T13:42:01.430Z,7.57
2022-12-11T13:44:27.715Z,7.25
2022-12-11T13:46:53.824Z,7.00
2022-12-11T13:49:19.946Z,6.70
2022-12-11T13:51:46.066Z,7.10
2022-12-11T13:54:16.515Z,8.07
2022-12-11T13:56:43.255Z,9.75
2022-12-11T13:59:09.474Z,6.55
2022-12-11T14:01:35.648Z,7.18
2022-12-11T14:04:01.788Z,7.90
2022-12-11T14:06:27.908Z,6.07
2022-12-11T14:08:54.034Z,7.43
2022-12-11T14:11:20.150Z,6.30
2022-12-11T14:13:46.260Z,5.88
2022-12-11T14:16:12.434Z,5.97
2022-12-11T14:18:38.631Z,5.55
2022-12-11T14:21:04.789Z,6.50
2022-12-11T14:23:31.062Z,6.75
2022-12-11T14:25:57.218Z,6.75
2022-12-11T14:28:23.365Z,6.15
2022-12-11T14:30:49.505Z,6.82
2022-12-11T14:33:15.641Z,8.75
2022-12-11T14:35:41.777Z,6.32
2022-12-11T14:38:07.947Z,6.25
2022-12-11T14:40:34.076Z,7.95
2022-12-11T14:43:00.679Z,7.30
2022-12-11T14:45:26.943Z,8.40
2022-12-11T14:47:53.116Z,9.60
2022-12-11T14:50:19.239Z,9.10
2022-12-11T14:52:45.368Z,7.07
2022-12-11T14:55:11.532Z,8.68
2022-12-11T14:57:37.722Z,7.65
2022-12-11T15:00:03.857Z,8.20
2022-12-11T15:02:30.094Z,6.90
2022-12-11T15:04:56.317Z,6.15
2022-12-11T15:07:22.443Z,7.93
2022-12-11T15:09:48.562Z,8.07
2022-12-11T15:12:14.728Z,7.18
2022-12-11T15:14:40.862Z,8.07
2022-12-11T15:17:07.044Z,9.27
2022-12-11T15:19:33.180Z,7.22
2022-12-11T15:21:59.323Z,8.55
2022-12-11T15:24:25.459Z,8.60
2022-12-11T15:26:51.801Z,9.77
2022-12-11T15:29:17.925Z,8.70
2022-12-11T15:31:44.077Z,8.18
2022-12-11T15:34:10.192Z,9.88
2022-12-11T15:36:36.351Z,8.13
2022-12-11T15:39:02.471Z,10.05
2022-12-11T15:41:28.620Z,8.15
2022-12-11T15:43:58.508Z,8.13
2022-12-11T15:46:25.450Z,9.40
2022-12-11T15:48:51.673Z,14.30
2022-12-11T15:51:17.785Z,9.95
2022-12-11T15:53:43.923Z,9.38
2022-12-11T15:56:10.060Z,10.73
2022-12-11T15:58:36.198Z,10.30
2022-12-11T16:01:02.491Z,10.75
2022-12-11T16:03:28.631Z,9.25
2022-12-11T16:05:54.755Z,10.60
2022-12-11T16:08:20.964Z,10.25
2022-12-11T16:10:47.106Z,9.88
2022-12-11T16:13:13.216Z,9.80
2022-12-11T16:15:39.410Z,12.02
2022-12-11T16:18:05.567Z,9.80
2022-12-11T16:20:31.692Z,9.55
2022-12-11T16:22:57.835Z,10.43
2022-12-11T16:25:23.952Z,12.25
2022-12-11T16:27:50.072Z,13.25
2022-12-11T16:30:16.195Z,11.38
2022-12-11T16:32:42.313Z,12.82
2022-12-11T16:35:08.475Z,10.85
2022-12-11T16:37:34.613Z,14.32
2022-12-11T16:40:02.840Z,10.63
2022-12-11T16:42:28.986Z,15.68
2022-12-11T16:44:55.097Z,12.13
2022-12-11T16:47:21.244Z,10.38
2022-12-11T16:49:47.341Z,12.35
2022-12-11T16:52:17.585Z,12.20
2022-12-11T16:54:46.616Z,12.50
2022-12-11T16:57:12.748Z,11.75
2022-12-11T16:59:38.851Z,13.63
2022-12-11T17:02:04.977Z,11.40
2022-12-11T17:04:31.085Z,12.57
2022-12-11T17:06:57.210Z,12.57
2022-12-11T17:09:23.317Z,14.07
2022-12-11T17:11:49.453Z,15.57
2022-12-11T17:14:15.586Z,13.63
2022-12-11T17:16:41.736Z,14.13
2022-12-11T17:19:07.830Z,13.60
2022-12-11T17:21:33.936Z,13.73
2022-12-11T17:24:00.072Z,15.18
2022-12-11T17:26:26.171Z,14.27
2022-12-11T17:28:52.297Z,14.88
2022-12-11T17:31:18.451Z,13.93
2022-12-11T17:33:44.629Z,13.48
2022-12-11T17:36:10.749Z,14.80
2022-12-11T17:38:36.876Z,13.68
2022-12-11T17:41:02.983Z,11.15
2022-12-11T17:43:29.111Z,11.88
2022-12-11T17:45:55.266Z,13.88
2022-12-11T17:48:21.445Z,13.35
2022-12-11T17:50:47.565Z,12.57
2022-12-11T17:53:13.711Z,13.13
2022-12-11T17:55:40.927Z,13.07
2022-12-11T17:58:07.101Z,13.10
2022-12-11T18:00:33.604Z,15.52
2022-12-11T18:02:59.751Z,12.52
2022-12-11T18:05:25.881Z,11.77
2022-12-11T18:07:57.465Z,12.43
2022-12-11T18:10:24.151Z,11.73
2022-12-11T18:12:50.257Z,10.52
2022-12-11T18:15:16.394Z,13.52
2022-12-11T18:17:42.536Z,11.98
2022-12-11T18:20:08.671Z,13.18
2022-12-11T18:22:34.807Z,13.43
2022-12-11T18:25:03.936Z,13.70
2022-12-11T18:27:34.050Z,10.73
2022-12-11T18:30:00.175Z,13.70
2022-12-11T18:32:26.282Z,13.32
2022-12-11T18:34:52.417Z,14.85
2022-12-11T18:37:21.181Z,11.77
2022-12-11T18:39:50.886Z,12.35
2022-12-11T18:42:33.629Z,12.15
2022-12-11T18:45:00.011Z,14.88
2022-12-11T18:47:26.138Z,12.25
2022-12-11T18:49:52.366Z,14.57
2022-12-11T18:52:18.687Z,16.30
2022-12-11T18:54:44.779Z,14.55
2022-12-11T18:57:10.900Z,16.80
2022-12-11T18:59:37.001Z,13.23
2022-12-11T19:02:03.294Z,15.38
2022-12-11T19:04:29.441Z,15.98
2022-12-11T19:06:55.567Z,15.02
2022-12-11T19:09:21.667Z,14.02
2022-12-11T19:11:47.799Z,14.05
2022-12-11T19:14:13.934Z,11.90
2022-12-11T19:16:40.153Z,16.33
2022-12-11T19:19:06.332Z,13.50
2022-12-11T19:21:32.465Z,15.10
2022-12-11T19:23:58.586Z,15.35
2022-12-11T19:26:24.703Z,14.40
2022-12-11T19:28:50.843Z,14.93
2022-12-11T19:31:17.053Z,13.80
2022-12-11T19:33:43.224Z,14.60
2022-12-11T19:36:09.334Z,15.68
2022-12-11T19:38:35.463Z,14.60
2022-12-11T19:41:01.583Z,15.48
2022-12-11T19:43:27.709Z,14.35
2022-12-11T19:45:53.816Z,14.15
2022-12-11T19:48:20.050Z,15.20
2022-12-11T19:50:46.177Z,15.43
2022-12-11T19:53:12.324Z,13.15
2022-12-11T19:55:38.452Z,14.07
2022-12-11T19:58:04.593Z,15.73
2022-12-11T20:00:30.771Z,18.60
2022-12-11T20:02:56.996Z,16.80
2022-12-11T20:05:23.112Z,13.63
2022-12-11T20:07:49.305Z,13.70
2022-12-11T20:10:15.485Z,16.00
2022-12-11T20:12:41.603Z,16.25
2022-12-11T20:15:07.740Z,16.33
2022-12-11T20:17:33.911Z,14.52
2022-12-11T20:20:00.173Z,14.38
2022-12-11T20:22:26.321Z,16.88
2022-12-11T20:24:52.486Z,16.42
2022-12-11T20:27:18.673Z,19.73
2022-12-11T20:29:44.846Z,18.70
2022-12-11T20:32:11.037Z,16.40
2022-12-11T20:34:37.332Z,18.85
2022-12-11T20:37:03.449Z,15.75
2022-12-11T20:39:29.621Z,17.08
2022-12-11T20:41:55.803Z,15.23
2022-12-11T20:44:21.933Z,15.45
2022-12-11T20:46:48.081Z,16.20
2022-12-11T20:49:14.189Z,16.55
2022-12-11T20:51:40.309Z,17.48
2022-12-11T20:54:08.599Z,14.82
2022-12-11T20:56:34.726Z,13.45
2022-12-11T20:59:00.873Z,17.38
2022-12-11T21:01:27.103Z,15.57
2022-12-11T21:03:53.276Z,14.30
2022-12-11T21:06:19.396Z,16.80
2022-12-11T21:08:45.496Z,15.32
2022-12-11T21:11:11.619Z,14.45
2022-12-11T21:13:37.772Z,13.70
2022-12-11T21:16:03.965Z,15.73
2022-12-11T21:18:30.113Z,13.30
2022-12-11T21:20:56.237Z,12.48
2022-12-11T21:23:22.355Z,14.43
2022-12-11T21:25:48.464Z,16.58
2022-12-11T21:28:14.587Z,15.90
2022-12-11T21:30:40.728Z,15.30
2022-12-11T21:33:06.865Z,15.38
2022-12-11T21:35:32.971Z,13.98
2022-12-11T21:37:59.125Z,13.65
2022-12-11T21:40:25.256Z,16.35
2022-12-11T21:42:51.372Z,13.20
2022-12-11T21:48:03.595Z,16.15
2022-12-11T21:50:29.760Z,15.82
2022-12-11T21:52:55.932Z,14.38
2022-12-11T21:55:23.473Z,16.20
2022-12-11T21:57:49.752Z,14.05
2022-12-11T22:00:15.869Z,14.40
2022-12-11T22:02:42.191Z,13.35
2022-12-11T22:05:08.422Z,13.68
2022-12-11T22:07:34.539Z,15.15
2022-12-11T22:10:00.658Z,14.50
2022-12-11T22:12:26.778Z,13.35
2022-12-11T22:14:52.900Z,15.95
2022-12-11T22:17:19.008Z,15.30
2022-12-11T22:19:45.135Z,15.25
2022-12-11T22:22:11.262Z,14.15
2022-12-11T22:24:37.383Z,14.40
2022-12-11T22:27:03.496Z,14.38
2022-12-11T22:29:29.647Z,14.32
2022-12-11T22:31:55.755Z,12.57
2022-12-11T22:34:21.903Z,17.13
2022-12-11T22:36:48.047Z,14.68
2022-12-11T22:39:14.174Z,14.57
2022-12-11T22:41:40.285Z,14.18
2022-12-11T22:44:06.434Z,16.92
2022-12-11T22:46:32.529Z,17.20
2022-12-11T22:48:58.685Z,13.40
2022-12-11T22:51:24.783Z,17.00
2022-12-11T22:53:50.942Z,13.82
2022-12-11T22:56:17.037Z,15.00
2022-12-11T22:58:43.157Z,16.15
2022-12-11T23:01:09.295Z,13.73
2022-12-11T23:03:35.472Z,13.93
2022-12-11T23:06:05.116Z,16.30
2022-12-11T23:08:31.767Z,12.02
2022-12-11T23:10:58.046Z,12.77
2022-12-11T23:13:24.143Z,14.85
2022-12-11T23:15:50.296Z,11.32
2022-12-11T23:18:16.409Z,11.07
2022-12-11T23:20:42.544Z,14.27
2022-12-11T23:23:08.672Z,12.27
2022-12-11T23:25:34.907Z,13.00
2022-12-11T23:28:01.016Z,15.82
2022-12-11T23:30:27.160Z,17.00
2022-12-11T23:32:53.274Z,15.57
2022-12-11T23:35:19.535Z,13.38
2022-12-11T23:37:45.651Z,14.45
2022-12-11T23:40:11.768Z,12.48
2022-12-11T23:42:37.886Z,13.50
2022-12-11T23:45:04.007Z,13.82
2022-12-11T23:47:30.115Z,13.57
2022-12-11T23:49:56.223Z,17.23
2022-12-11T23:52:22.340Z,13.82
2022-12-11T23:54:48.453Z,14.48
2022-12-11T23:57:14.569Z,15.07
2022-12-11T23:59:40.662Z,16.05
